Time;durP1;ratioP1;P1;durP2;ratioP2;P2;SDS_P1;SDS_P2;PMS_P1;PMS_P2;Temp;Humidity;BMP_temperature;BMP_pressure;BME280_temperature;BME280_humidity;BME280_pressure;Samples;Min_cycle;Max_cycle;Signal;HPM_P1;HPM_P2
2023/12/18 00:01:38;;;;;;;30.00;12.63;;;;;;;-1.97;78.08;95711.84;5066162;28;20029;-78
2023/12/18 00:04:03;;;;;;;24.83;12.43;;;;;;;-1.93;77.74;95717.53;5066448;28;20036;-78
2023/12/18 00:06:30;;;;;;;32.42;13.23;;;;;;;-1.90;77.67;95723.16;5066260;28;20051;-78
2023/12/18 00:08:55;;;;;;;28.98;12.63;;;;;;;-1.94;77.65;95731.56;5066200;28;20029;-78
2023/12/18 00:11:20;;;;;;;28.17;11.88;;;;;;;-1.93;77.83;95728.78;5065921;28;20334;-78
2023/12/18 00:13:46;;;;;;;26.42;11.80;;;;;;;-1.93;77.73;95723.53;5066193;28;20033;-78
2023/12/18 00:16:12;;;;;;;24.35;10.25;;;;;;;-1.98;78.07;95712.84;5066191;28;20048;-78
2023/12/18 00:18:37;;;;;;;22.60;11.25;;;;;;;-2.00;78.08;95716.66;5066025;28;20077;-77
2023/12/18 00:21:03;;;;;;;24.70;11.25;;;;;;;-2.02;78.27;95704.56;5066062;28;20093;-78
2023/12/18 00:23:29;;;;;;;27.55;11.05;;;;;;;-2.04;78.31;95703.13;5065849;28;20025;-77
2023/12/18 00:25:55;;;;;;;29.35;11.65;;;;;;;-2.02;78.50;95695.91;5065925;28;20024;-78
2023/12/18 00:28:20;;;;;;;19.38;10.70;;;;;;;-2.00;78.05;95698.34;5065897;28;20047;-78
2023/12/18 00:30:46;;;;;;;25.90;11.73;;;;;;;-2.03;78.36;95686.47;5065994;28;20020;-78
2023/12/18 00:33:11;;;;;;;26.75;12.57;;;;;;;-2.00;78.43;95686.09;5065758;28;20320;-78
2023/12/18 00:35:36;;;;;;;28.00;12.15;;;;;;;-1.99;78.26;95684.28;5064472;28;20056;-78
2023/12/18 00:38:02;;;;;;;23.05;10.13;;;;;;;-1.93;77.60;95681.72;5065643;28;20031;-78
2023/12/18 00:40:27;;;;;;;25.05;11.65;;;;;;;-1.92;77.98;95682.53;5065572;28;20197;-78
2023/12/18 00:42:53;;;;;;;27.75;11.73;;;;;;;-1.96;77.99;95676.88;5065564;28;20309;-77
2023/12/18 00:45:18;;;;;;;24.70;12.00;;;;;;;-1.92;77.86;95680.72;5064408;28;20218;-78
2023/12/18 00:47:44;;;;;;;31.60;13.13;;;;;;;-1.99;77.68;95682.50;5065539;28;20024;-78
2023/12/18 00:50:10;;;;;;;26.20;11.88;;;;;;;-1.96;78.05;95689.94;5065437;28;20044;-78
2023/12/18 00:52:38;;;;;;;27.83;12.15;;;;;;;-1.99;78.51;95685.09;5065432;28;20028;-78
2023/12/18 00:55:05;;;;;;;27.67;12.43;;;;;;;-1.97;78.47;95684.88;5065314;28;20031;-78
2023/12/18 00:57:31;;;;;;;34.13;13.95;;;;;;;-1.99;79.28;95682.50;5065172;28;20064;-78
2023/12/18 00:59:56;;;;;;;35.50;14.50;;;;;;;-1.91;79.27;95687.56;5065099;28;20024;-78
2023/12/18 01:02:22;;;;;;;26.45;13.40;;;;;;;-2.01;78.92;95674.03;5065248;28;20051;-78
2023/12/18 01:04:47;;;;;;;27.27;13.43;;;;;;;-1.95;79.21;95678.50;5065120;28;20267;-78
2023/12/18 01:07:13;;;;;;;30.77;14.20;;;;;;;-2.04;79.03;95669.97;5065218;28;20063;-78
2023/12/18 01:09:38;;;;;;;32.22;13.15;;;;;;;-2.05;79.09;95664.97;5063871;28;20025;-78
2023/12/18 01:12:04;;;;;;;32.05;14.57;;;;;;;-2.00;79.08;95657.34;5065096;28;20047;-77
2023/12/18 01:14:29;;;;;;;28.35;13.07;;;;;;;-2.00;79.00;95653.94;5065010;28;20028;-77
2023/12/18 01:16:55;;;;;;;30.23;13.43;;;;;;;-2.02;79.05;95654.91;5065090;28;20020;-78
2023/12/18 01:19:21;;;;;;;28.52;14.25;;;;;;;-2.00;79.04;95649.50;5065064;28;20303;-78
2023/12/18 01:21:46;;;;;;;28.48;14.07;;;;;;;-2.00;79.00;95654.72;5064982;28;20322;-79
2023/12/18 01:24:12;;;;;;;26.20;11.77;;;;;;;-2.00;78.46;95646.09;5064669;28;20025;-79
2023/12/18 01:26:37;;;;;;;23.60;12.48;;;;;;;-2.06;78.86;95661.50;5064949;28;20044;-79
2023/12/18 01:29:04;;;;;;;24.63;12.10;;;;;;;-2.03;78.89;95660.34;5064735;28;20031;-79
2023/12/18 01:31:29;;;;;;;28.73;12.82;;;;;;;-2.07;79.09;95643.44;5064996;28;20029;-80
2023/12/18 01:33:55;;;;;;;25.95;12.43;;;;;;;-2.01;78.85;95642.69;5064578;28;20073;-79
2023/12/18 01:36:21;;;;;;;21.38;11.60;;;;;;;-2.01;78.64;95637.44;5063500;28;20032;-80
2023/12/18 01:38:47;;;;;;;26.90;12.23;;;;;;;-2.03;78.33;95634.22;5064715;28;20215;-79
2023/12/18 01:41:12;;;;;;;26.58;12.35;;;;;;;-2.04;78.31;95628.16;5064753;28;20087;-79
2023/12/18 01:43:38;;;;;;;26.15;13.13;;;;;;;-2.04;78.39;95622.13;5064947;28;20098;-79
2023/12/18 01:46:05;;;;;;;28.02;13.30;;;;;;;-2.00;78.26;95617.34;5064629;28;20016;-79
2023/12/18 01:48:32;;;;;;;32.97;15.38;;;;;;;-2.00;78.78;95620.75;5064445;28;20027;-78
2023/12/18 01:50:59;;;;;;;39.47;17.63;;;;;;;-1.97;78.48;95609.09;5064145;28;20021;-77
2023/12/18 01:53:33;;;;;;;41.08;18.13;;;;;;;-1.95;78.72;95613.16;5064195;28;20306;-77
2023/12/18 01:56:00;;;;;;;40.38;18.25;;;;;;;-1.96;78.51;95608.91;5064137;28;20100;-78
2023/12/18 01:58:27;;;;;;;31.45;14.85;;;;;;;-1.98;78.68;95599.66;5064222;28;20086;-78
2023/12/18 02:00:52;;;;;;;28.65;13.20;;;;;;;-1.92;78.72;95615.38;5064577;28;20033;-80
2023/12/18 02:03:19;;;;;;;30.92;12.90;;;;;;;-1.93;78.57;95615.59;5064400;28;20024;-80
2023/12/18 02:05:46;;;;;;;27.20;13.60;;;;;;;-1.91;78.58;95617.00;5064566;28;20025;-79
2023/12/18 02:08:12;;;;;;;29.50;13.07;;;;;;;-1.89;77.94;95609.78;5064581;28;20091;-79
2023/12/18 02:10:37;;;;;;;24.95;11.68;;;;;;;-1.83;77.85;95629.94;5064111;28;20235;-79
2023/12/18 02:13:03;;;;;;;23.50;11.52;;;;;;;-1.84;77.84;95622.25;5064252;28;20088;-79
2023/12/18 02:15:29;;;;;;;20.05;11.55;;;;;;;-1.86;77.63;95614.59;5064074;28;20016;-79
2023/12/18 02:17:54;;;;;;;20.73;10.45;;;;;;;-1.85;77.55;95618.84;5064116;28;20017;-79
2023/12/18 02:20:20;;;;;;;24.52;10.73;;;;;;;-1.90;77.56;95609.97;5063429;28;20055;-79
2023/12/18 02:22:45;;;;;;;21.88;10.90;;;;;;;-1.89;77.54;95619.44;5064385;28;20029;-79
2023/12/18 02:25:11;;;;;;;26.65;11.43;;;;;;;-1.94;77.70;95620.00;5063953;28;20100;-79
2023/12/18 02:27:37;;;;;;;21.50;11.35;;;;;;;-1.93;77.83;95607.75;5063599;28;20349;-79
2023/12/18 02:30:05;;;;;;;23.08;10.85;;;;;;;-1.94;77.78;95601.69;5063584;28;20315;-79
2023/12/18 02:32:30;;;;;;;27.98;10.75;;;;;;;-1.91;77.86;95606.56;5064235;28;20046;-79
2023/12/18 02:34:56;;;;;;;22.83;10.25;;;;;;;-1.92;77.67;95604.94;5064479;28;20250;-79
2023/12/18 02:37:23;;;;;;;26.50;12.18;;;;;;;-1.92;77.99;95599.69;5064093;28;20067;-78
2023/12/18 02:39:49;;;;;;;26.08;13.18;;;;;;;-1.92;78.36;95604.13;5063483;28;20013;-78
2023/12/18 02:42:14;;;;;;;24.23;12.13;;;;;;;-1.93;78.04;95600.72;5063926;28;20057;-79
2023/12/18 02:44:40;;;;;;;26.00;11.85;;;;;;;-1.92;78.13;95599.69;5063861;28;20319;-78
2023/12/18 02:47:05;;;;;;;26.48;12.40;;;;;;;-1.89;78.12;95604.56;5063947;28;20020;-78
2023/12/18 02:49:31;;;;;;;32.53;13.95;;;;;;;-1.91;77.47;95617.00;5063703;28;20021;-78
2023/12/18 02:51:57;;;;;;;33.13;14.43;;;;;;;-1.95;77.83;95604.53;5064060;28;20067;-78
2023/12/18 02:54:22;;;;;;;32.28;12.85;;;;;;;-1.99;77.97;95603.25;5063968;28;20063;-79
2023/12/18 02:56:47;;;;;;;33.65;13.65;;;;;;;-2.02;78.07;95604.47;5064016;28;20028;-78
2023/12/18 02:59:13;;;;;;;33.63;14.43;;;;;;;-1.99;78.17;95608.50;5064509;28;20031;-80
2023/12/18 03:01:38;;;;;;;34.92;14.68;;;;;;;-1.98;78.08;95608.31;5064481;28;20028;-78
2023/12/18 03:04:04;;;;;;;39.85;15.68;;;;;;;-1.98;78.07;95629.22;5063862;28;20084;-79
2023/12/18 03:06:29;;;;;;;39.85;16.60;;;;;;;-1.96;78.03;95611.53;5064024;28;20048;-79
2023/12/18 03:08:55;;;;;;;33.05;14.60;;;;;;;-2.02;78.35;95609.69;5064668;28;20029;-79
2023/12/18 03:11:20;;;;;;;37.97;15.77;;;;;;;-2.02;78.08;95612.31;5063636;28;20357;-79
2023/12/18 03:13:46;;;;;;;30.90;15.65;;;;;;;-2.03;78.18;95605.47;5063411;28;20123;-78
2023/12/18 03:16:12;;;;;;;37.50;15.40;;;;;;;-2.02;78.30;95604.47;5063153;28;20031;-76
2023/12/18 03:18:37;;;;;;;28.98;14.05;;;;;;;-2.01;78.00;95608.69;5062898;28;20036;-76
2023/12/18 03:21:03;;;;;;;33.97;15.30;;;;;;;-2.03;77.86;95618.53;5062754;28;20267;-76
2023/12/18 03:23:28;;;;;;;32.53;14.55;;;;;;;-2.03;78.03;95608.09;5062894;28;20333;-76
2023/12/18 03:25:54;;;;;;;37.65;17.70;;;;;;;-2.08;78.06;95607.84;5062711;28;20071;-76
2023/12/18 03:28:19;;;;;;;35.70;15.18;;;;;;;-2.07;77.99;95618.09;5062648;28;20036;-77
2023/12/18 03:30:45;;;;;;;34.08;14.70;;;;;;;-2.07;77.90;95612.09;5062670;28;20103;-77
2023/12/18 03:33:10;;;;;;;34.92;15.40;;;;;;;-2.03;77.65;95610.69;5062016;28;20013;-77
2023/12/18 03:35:36;;;;;;;32.38;15.25;;;;;;;-2.12;78.18;95606.59;5062797;28;20208;-76
2023/12/18 03:38:01;;;;;;;32.92;14.57;;;;;;;-2.09;77.90;95596.59;5062588;28;20020;-76
2023/12/18 03:40:27;;;;;;;35.50;14.32;;;;;;;-2.07;77.64;95593.78;5062753;28;20215;-76
2023/12/18 03:42:52;;;;;;;31.55;13.27;;;;;;;-2.06;77.59;95592.78;5062456;28;20094;-77
2023/12/18 03:45:18;;;;;;;28.05;12.07;;;;;;;-2.12;77.64;95590.94;5062395;28;20017;-76
2023/12/18 03:47:43;;;;;;;27.92;12.27;;;;;;;-2.10;77.86;95592.34;5062865;28;20028;-76
2023/12/18 03:50:10;;;;;;;30.02;12.27;;;;;;;-2.11;77.72;95584.72;5062297;28;20074;-76
2023/12/18 03:52:35;;;;;;;25.33;12.07;;;;;;;-2.11;77.44;95592.56;5062540;28;20017;-76
2023/12/18 03:55:01;;;;;;;41.70;15.77;;;;;;;-2.11;77.24;95589.94;5062550;28;20017;-77
2023/12/18 03:57:26;;;;;;;81.22;23.13;;;;;;;-2.15;77.56;95588.72;5062039;28;20033;-77
2023/12/18 03:59:52;;;;;;;83.57;22.83;;;;;;;-2.14;77.49;95588.50;5062392;28;20028;-76
2023/12/18 04:02:17;;;;;;;101.65;27.85;;;;;;;-2.16;77.60;95587.09;5062325;28;20315;-76
2023/12/18 04:04:44;;;;;;;121.03;31.83;;;;;;;-2.16;77.63;95594.91;5062382;28;20075;-77
2023/12/18 04:07:09;;;;;;;145.32;37.53;;;;;;;-2.19;78.11;95590.88;5062359;28;20020;-77
2023/12/18 04:09:38;;;;;;;130.20;37.65;;;;;;;-2.17;77.97;95596.72;5061916;28;20032;-77
2023/12/18 04:12:03;;;;;;;111.10;32.67;;;;;;;-2.16;77.82;95598.34;5062074;28;20017;-78
2023/12/18 04:14:29;;;;;;;89.00;29.90;;;;;;;-2.13;77.92;95599.78;5062266;28;20017;-78
2023/12/18 04:16:54;;;;;;;82.80;25.30;;;;;;;-2.17;78.20;95604.56;5062203;28;20017;-78
2023/12/18 04:19:20;;;;;;;69.93;22.55;;;;;;;-2.14;78.32;95611.22;5062239;28;20016;-78
2023/12/18 04:21:45;;;;;;;59.42;20.35;;;;;;;-2.11;77.68;95606.41;5062368;28;20020;-78
2023/12/18 04:24:11;;;;;;;61.22;19.77;;;;;;;-2.13;77.75;95602.41;5062059;28;20263;-80
2023/12/18 04:26:36;;;;;;;48.72;17.40;;;;;;;-2.18;77.97;95609.97;5062111;28;20100;-78
2023/12/18 04:29:02;;;;;;;52.67;17.42;;;;;;;-2.18;77.88;95600.31;5062112;28;20220;-78
2023/12/18 04:31:28;;;;;;;46.38;18.00;;;;;;;-2.18;77.97;95596.91;5062030;28;20033;-77
2023/12/18 04:33:53;;;;;;;47.03;15.75;;;;;;;-2.12;77.90;95593.53;5061767;28;20052;-78
2023/12/18 04:36:19;;;;;;;36.58;16.65;;;;;;;-2.12;77.63;95596.16;5062003;28;20028;-77
2023/12/18 04:38:46;;;;;;;45.55;17.33;;;;;;;-2.15;77.87;95589.50;5062215;28;20028;-77
2023/12/18 04:41:21;;;;;;;43.97;16.75;;;;;;;-2.20;78.07;95586.66;5062059;28;20013;-77
2023/12/18 04:43:47;;;;;;;38.92;16.00;;;;;;;-2.20;78.06;95588.47;5064257;28;20220;-77
2023/12/18 04:46:12;;;;;;;49.58;17.02;;;;;;;-2.15;78.17;95601.78;5065565;28;20094;-77
2023/12/18 04:48:38;;;;;;;49.03;17.75;;;;;;;-2.16;77.93;95603.56;5065444;28;20028;-77
2023/12/18 04:51:04;;;;;;;49.55;18.00;;;;;;;-2.17;78.02;95599.34;5065473;28;20033;-78
2023/12/18 04:53:32;;;;;;;54.85;18.85;;;;;;;-2.14;78.30;95600.75;5065626;28;20092;-78
2023/12/18 04:55:57;;;;;;;59.08;21.25;;;;;;;-2.10;78.00;95602.78;5065380;28;20036;-77
2023/12/18 04:58:23;;;;;;;53.38;19.30;;;;;;;-2.17;77.63;95591.50;5064977;28;20045;-78
2023/12/18 05:00:48;;;;;;;64.47;20.75;;;;;;;-2.14;78.22;95595.53;5065224;28;20037;-77
2023/12/18 05:03:14;;;;;;;58.42;18.92;;;;;;;-2.09;77.93;95587.94;5065304;28;20115;-78
2023/12/18 05:05:39;;;;;;;53.75;21.23;;;;;;;-2.12;78.06;95593.53;5065205;28;20026;-78
2023/12/18 05:08:05;;;;;;;54.83;18.55;;;;;;;-2.17;78.35;95599.34;5065096;28;20154;-78
2023/12/18 05:10:31;;;;;;;60.55;19.20;;;;;;;-2.12;78.43;95596.16;5064928;28;20223;-78
2023/12/18 05:12:57;;;;;;;45.25;17.13;;;;;;;-2.08;77.93;95597.38;5065276;28;20130;-78
2023/12/18 05:15:22;;;;;;;40.17;15.95;;;;;;;-2.09;77.97;95590.56;5065336;28;20032;-78
2023/12/18 05:17:48;;;;;;;46.15;16.08;;;;;;;-2.12;78.43;95598.75;5064132;28;20024;-77
2023/12/18 05:20:14;;;;;;;41.28;15.27;;;;;;;-2.13;78.55;95602.41;5065173;28;20035;-77
2023/12/18 05:22:40;;;;;;;40.92;15.52;;;;;;;-2.10;78.33;95608.03;5064887;28;20044;-78
2023/12/18 05:25:08;;;;;;;40.10;15.45;;;;;;;-2.08;78.18;95606.03;5064671;28;20031;-77
2023/12/18 05:27:33;;;;;;;42.50;16.90;;;;;;;-2.10;78.27;95596.78;5063565;28;20025;-77
2023/12/18 05:29:59;;;;;;;42.30;17.38;;;;;;;-2.14;78.85;95592.91;5064686;28;20036;-77
2023/12/18 05:32:24;;;;;;;45.88;17.42;;;;;;;-2.13;78.65;95591.94;5064721;28;20259;-78
2023/12/18 05:34:50;;;;;;;49.58;18.48;;;;;;;-2.15;78.98;95580.88;5064476;28;20021;-77
2023/12/18 05:37:16;;;;;;;48.88;19.08;;;;;;;-2.13;78.69;95586.72;5064734;28;20099;-77
2023/12/18 05:39:41;;;;;;;40.25;17.38;;;;;;;-2.09;78.57;95593.97;5064590;28;20078;-78
2023/12/18 05:42:07;;;;;;;44.10;17.40;;;;;;;-2.08;78.05;95590.34;5064389;28;20227;-77
2023/12/18 05:44:32;;;;;;;41.17;16.75;;;;;;;-2.05;78.47;95594.41;5064488;28;20058;-77
2023/12/18 05:46:57;;;;;;;38.42;16.20;;;;;;;-2.06;78.44;95598.81;5064402;28;20024;-78
2023/12/18 05:49:23;;;;;;;41.00;14.90;;;;;;;-2.06;78.86;95592.78;5064080;28;20034;-78
2023/12/18 05:51:49;;;;;;;34.05;15.00;;;;;;;-2.03;78.86;95597.63;5064382;28;20021;-78
2023/12/18 05:54:15;;;;;;;38.28;15.50;;;;;;;-2.04;78.46;95596.81;5064086;28;20023;-78
2023/12/18 05:56:40;;;;;;;36.15;14.93;;;;;;;-2.01;78.40;95603.47;5063826;28;20040;-78
2023/12/18 05:59:06;;;;;;;35.47;15.05;;;;;;;-1.99;78.35;95587.59;5064328;28;20028;-78
2023/12/18 06:01:31;;;;;;;37.70;13.90;;;;;;;-1.99;78.43;95590.19;5064105;28;20065;-78
2023/12/18 06:03:57;;;;;;;32.25;15.63;;;;;;;-1.99;79.19;95598.03;5064287;28;20013;-79
2023/12/18 06:06:22;;;;;;;37.88;14.93;;;;;;;-1.98;79.00;95597.84;5063943;28;20040;-78
2023/12/18 06:08:47;;;;;;;32.33;14.05;;;;;;;-1.96;79.10;95608.13;5064168;28;20020;-79
2023/12/18 06:11:15;;;;;;;35.45;14.43;;;;;;;-1.95;79.15;95602.72;5063715;28;20215;-78
2023/12/18 06:13:41;;;;;;;39.78;15.93;;;;;;;-1.87;78.78;95601.75;5063788;28;20027;-78
2023/12/18 06:16:06;;;;;;;30.00;15.02;;;;;;;-1.83;78.33;95603.78;5063677;28;20028;-79
2023/12/18 06:18:32;;;;;;;29.65;13.25;;;;;;;-1.76;78.46;95618.69;5063566;28;20059;-77
2023/12/18 06:21:02;;;;;;;32.50;13.20;;;;;;;-1.73;78.43;95615.69;5063602;28;20016;-77
2023/12/18 06:23:28;;;;;;;27.55;13.65;;;;;;;-1.71;78.24;95611.06;5063818;28;20028;-78
2023/12/18 06:25:53;;;;;;;41.03;17.88;;;;;;;-1.71;78.19;95605.84;5063513;28;20016;-77
2023/12/18 06:28:19;;;;;;;36.28;16.70;;;;;;;-1.71;78.56;95601.44;5063662;28;20019;-78
2023/12/18 06:30:44;;;;;;;35.78;17.02;;;;;;;-1.64;78.16;95604.09;5063577;28;20040;-77
2023/12/18 06:33:10;;;;;;;40.30;16.77;;;;;;;-1.63;78.04;95603.91;5063608;28;20323;-78
2023/12/18 06:35:35;;;;;;;37.75;17.08;;;;;;;-1.58;77.74;95600.69;5063422;28;20029;-78
2023/12/18 06:38:00;;;;;;;35.60;15.85;;;;;;;-1.53;77.76;95593.06;5063514;28;20036;-80
2023/12/18 06:40:26;;;;;;;35.42;15.48;;;;;;;-1.50;77.99;95587.44;5063090;28;20020;-80
2023/12/18 06:42:51;;;;;;;32.90;15.95;;;;;;;-1.44;78.21;95588.47;5063432;28;20059;-80
2023/12/18 06:45:17;;;;;;;40.05;17.52;;;;;;;-1.44;78.65;95589.28;5063357;28;20243;-78
2023/12/18 06:47:42;;;;;;;32.90;16.27;;;;;;;-1.36;78.11;95587.47;5063049;28;20032;-79
2023/12/18 06:50:08;;;;;;;44.63;18.08;;;;;;;-1.31;78.12;95587.72;5063161;28;20029;-77
2023/12/18 06:52:33;;;;;;;44.28;19.00;;;;;;;-1.27;78.00;95581.88;5062545;28;20032;-76
2023/12/18 06:54:59;;;;;;;38.47;18.55;;;;;;;-1.24;77.87;95580.72;5062997;28;20055;-76
2023/12/18 06:57:24;;;;;;;41.53;18.67;;;;;;;-1.19;78.10;95574.88;5062908;28;20040;-78
2023/12/18 06:59:50;;;;;;;38.22;18.00;;;;;;;-1.08;77.80;95579.53;5063124;28;20049;-79
2023/12/18 07:02:16;;;;;;;41.97;18.42;;;;;;;-1.05;77.59;95579.94;5062552;28;20032;-76
2023/12/18 07:04:41;;;;;;;42.47;18.90;;;;;;;-1.00;77.88;95589.81;5061925;28;20288;-76
2023/12/18 07:07:08;;;;;;;37.47;15.30;;;;;;;-0.98;77.87;95600.09;5062413;28;20036;-84
2023/12/18 07:09:33;;;;;;;32.78;16.73;;;;;;;-0.96;77.73;95598.06;5064419;28;20033;-83
2023/12/18 07:11:59;;;;;;;35.90;17.33;;;;;;;-0.91;77.66;95611.41;5064536;28;20031;-87
2023/12/18 07:14:24;;;;;;;37.20;17.27;;;;;;;-0.88;77.71;95621.47;5065330;28;20078;-83
2023/12/18 07:16:52;;;;;;;39.35;18.38;;;;;;;-0.77;78.39;95618.28;5066916;28;20047;-88
2023/12/18 07:19:18;;;;;;;40.45;18.70;;;;;;;-0.78;77.46;95614.03;5063705;28;20044;-76
2023/12/18 07:21:44;;;;;;;42.53;19.73;;;;;;;-0.83;77.65;95614.63;5062055;28;20315;-77
2023/12/18 07:24:09;;;;;;;50.97;20.23;;;;;;;-0.83;77.48;95601.53;5059763;28;20021;-76
2023/12/18 07:26:35;;;;;;;42.15;19.27;;;;;;;-0.82;77.61;95611.00;5060710;28;20032;-76
2023/12/18 07:29:00;;;;;;;38.50;18.25;;;;;;;-0.76;77.71;95605.97;5060839;28;20055;-79
2023/12/18 07:31:26;;;;;;;42.03;18.10;;;;;;;-0.69;77.43;95598.91;5060954;28;20041;-78
2023/12/18 07:33:51;;;;;;;37.15;17.42;;;;;;;-0.60;77.45;95597.75;5061541;28;20215;-80
2023/12/18 07:36:17;;;;;;;37.65;17.58;;;;;;;-0.51;77.23;95608.81;5062382;28;20027;-77
2023/12/18 07:38:44;;;;;;;40.72;19.67;;;;;;;-0.43;77.27;95600.75;5062130;28;20024;-78
2023/12/18 07:41:10;;;;;;;34.15;17.73;;;;;;;-0.34;76.75;95602.19;5060885;28;20100;-78
2023/12/18 07:43:35;;;;;;;38.08;18.48;;;;;;;-0.23;76.63;95612.03;5061445;28;20043;-77
2023/12/18 07:46:01;;;;;;;38.45;17.23;;;;;;;-0.15;76.49;95599.75;5062164;28;20040;-79
2023/12/18 07:48:26;;;;;;;28.58;15.40;;;;;;;-0.10;76.18;95598.16;5061826;28;20025;-77
2023/12/18 07:50:52;;;;;;;36.17;16.67;;;;;;;-0.02;75.68;95595.31;5060556;28;20029;-77
2023/12/18 07:53:18;;;;;;;33.95;15.95;;;;;;;0.05;75.61;95584.81;5061050;28;20384;-78
2023/12/18 07:55:44;;;;;;;36.65;18.35;;;;;;;0.16;75.39;95591.22;5061851;28;20088;-78
2023/12/18 07:58:09;;;;;;;36.47;16.67;;;;;;;0.23;74.77;95591.25;5061591;28;20110;-77
2023/12/18 08:00:35;;;;;;;42.90;18.38;;;;;;;0.24;74.33;95583.13;5061553;28;20323;-78
2023/12/18 08:03:02;;;;;;;43.03;19.08;;;;;;;0.31;74.48;95596.25;5061652;28;20045;-78
2023/12/18 08:05:28;;;;;;;45.85;17.33;;;;;;;0.25;74.70;95589.22;5062021;28;20025;-78
2023/12/18 08:07:54;;;;;;;34.88;17.42;;;;;;;0.24;74.79;95598.06;5062341;28;20025;-78
2023/12/18 08:10:19;;;;;;;39.47;19.08;;;;;;;0.23;75.35;95584.16;5061020;28;20048;-78
2023/12/18 08:12:44;;;;;;;38.70;17.92;;;;;;;0.19;75.06;95590.84;5062138;28;20044;-78
2023/12/18 08:15:10;;;;;;;45.15;19.63;;;;;;;0.23;75.20;95591.25;5062146;28;20048;-79
2023/12/18 08:17:39;;;;;;;38.83;19.08;;;;;;;0.27;75.05;95593.25;5062357;28;20107;-79
2023/12/18 08:20:06;;;;;;;42.13;19.58;;;;;;;0.31;74.39;95598.88;5065900;28;20223;-79
2023/12/18 08:22:32;;;;;;;38.13;18.10;;;;;;;0.33;74.70;95591.63;5065994;28;20031;-79
2023/12/18 08:24:58;;;;;;;40.33;20.45;;;;;;;0.38;74.21;95594.41;5065712;28;20044;-79
2023/12/18 08:27:23;;;;;;;40.72;18.85;;;;;;;0.38;74.00;95594.41;5065852;28;20039;-79
2023/12/18 08:29:49;;;;;;;37.08;18.85;;;;;;;0.45;73.89;95599.63;5066130;28;20033;-80
2023/12/18 08:32:14;;;;;;;42.60;19.13;;;;;;;0.52;73.74;95598.59;5066601;28;20028;-84
2023/12/18 08:34:40;;;;;;;37.75;19.38;;;;;;;0.59;73.20;95599.41;5065915;28;20032;-84
2023/12/18 08:37:06;;;;;;;43.78;19.98;;;;;;;0.58;73.20;95595.16;5065789;28;20256;-84
2023/12/18 08:39:32;;;;;;;40.72;20.30;;;;;;;0.59;73.73;95607.28;5065768;28;20020;-84
2023/12/18 08:41:57;;;;;;;43.17;20.80;;;;;;;0.58;74.08;95589.09;5064366;28;20099;-84
2023/12/18 08:44:23;;;;;;;43.13;19.90;;;;;;;0.59;73.95;95594.16;5064513;28;20024;-84
2023/12/18 08:46:48;;;;;;;44.15;20.40;;;;;;;0.65;74.38;95591.69;5065503;28;20096;-84
2023/12/18 08:49:14;;;;;;;44.78;20.20;;;;;;;0.69;74.33;95596.34;5065894;28;20051;-84
2023/12/18 08:51:39;;;;;;;46.40;20.67;;;;;;;0.77;74.03;95587.41;5065961;28;20036;-86
2023/12/18 08:54:05;;;;;;;41.05;20.80;;;;;;;0.85;73.82;95589.78;5065517;28;20331;-82
2023/12/18 08:56:32;;;;;;;47.15;21.55;;;;;;;0.96;73.65;95580.47;5065423;28;20329;-82
2023/12/18 08:58:58;;;;;;;48.20;21.45;;;;;;;1.06;72.80;95582.59;5065311;28;20056;-79
2023/12/18 09:01:24;;;;;;;51.33;23.70;;;;;;;1.15;73.07;95587.41;5065539;28;20092;-86
2023/12/18 09:03:50;;;;;;;54.08;24.30;;;;;;;1.23;72.85;95588.19;5064309;28;20016;-85
2023/12/18 09:06:16;;;;;;;43.10;21.75;;;;;;;1.32;72.39;95584.28;5065460;28;20023;-86
2023/12/18 09:08:41;;;;;;;45.70;22.23;;;;;;;1.39;71.89;95583.22;5065341;28;20096;-81
2023/12/18 09:11:08;;;;;;;53.63;25.05;;;;;;;1.37;71.84;95571.31;5065448;28;20265;-87
2023/12/18 09:13:36;;;;;;;48.58;23.23;;;;;;;1.42;71.93;95576.72;5065542;28;20205;-86
2023/12/18 09:16:05;;;;;;;53.78;23.90;;;;;;;1.44;72.08;95569.44;5065185;28;20021;-88
2023/12/18 09:18:31;;;;;;;47.90;24.25;;;;;;;1.46;72.30;95559.50;5065726;28;20054;-86
2023/12/18 09:20:56;;;;;;;51.90;25.15;;;;;;;1.52;72.56;95568.38;5065005;28;20017;-88
2023/12/18 09:23:22;;;;;;;47.20;24.15;;;;;;;1.54;72.50;95558.44;5065460;28;20345;-87
2023/12/18 09:25:47;;;;;;;53.80;25.77;;;;;;;1.51;72.07;95553.63;5065257;28;20044;-87
2023/12/18 09:28:13;;;;;;;52.45;25.90;;;;;;;1.62;72.31;95550.28;5065541;28;20028;-88
2023/12/18 09:30:40;;;;;;;50.28;26.02;;;;;;;1.62;72.11;95552.13;5062703;28;20033;-85
2023/12/18 09:33:06;;;;;;;55.47;26.20;;;;;;;1.71;71.90;95535.88;5064990;28;20280;-88
2023/12/18 09:35:31;;;;;;;53.90;26.77;;;;;;;1.82;71.77;95530.91;5064547;28;20032;-86
2023/12/18 09:37:57;;;;;;;52.90;25.70;;;;;;;1.94;72.07;95540.50;5064794;28;20025;-84
2023/12/18 09:40:23;;;;;;;54.85;25.75;;;;;;;1.99;71.70;95539.84;5064916;28;20033;-85
2023/12/18 09:42:53;;;;;;;60.17;28.60;;;;;;;2.03;71.71;95530.50;5064813;28;20029;-87
2023/12/18 09:45:23;;;;;;;52.78;26.67;;;;;;;2.13;70.63;95536.06;5064831;28;20223;-87
2023/12/18 09:47:58;;;;;;;51.97;25.85;;;;;;;2.14;71.13;95531.63;5063805;28;20021;-86
2023/12/18 09:50:23;;;;;;;56.30;27.70;;;;;;;2.16;71.56;95526.94;5064470;28;20025;-85
2023/12/18 09:52:57;;;;;;;57.70;27.00;;;;;;;2.07;70.97;95526.41;5064696;28;20028;-87
2023/12/18 09:55:24;;;;;;;53.92;28.75;;;;;;;2.03;71.64;95506.81;5063674;28;20017;-87
2023/12/18 09:57:51;;;;;;;58.10;28.63;;;;;;;2.05;72.38;95507.41;5064405;28;20041;-87
2023/12/18 10:00:20;;;;;;;59.90;30.35;;;;;;;2.20;71.91;95513.13;5063180;28;20100;-87
2023/12/18 10:02:45;;;;;;;59.13;30.58;;;;;;;2.27;71.40;95513.03;5065013;28;20028;-89
2023/12/18 10:05:11;;;;;;;66.85;30.75;;;;;;;2.26;70.87;95510.63;5064558;28;20098;-90
2023/12/18 10:07:36;;;;;;;59.15;31.30;;;;;;;2.31;71.86;95508.16;5064315;28;20052;-87
2023/12/18 10:10:02;;;;;;;63.90;30.63;;;;;;;2.44;72.08;95507.97;5062957;28;20028;-86
2023/12/18 10:12:27;;;;;;;54.20;30.23;;;;;;;2.55;71.27;95509.88;5064192;28;20032;-86
2023/12/18 10:14:53;;;;;;;60.10;30.05;;;;;;;2.64;71.68;95491.94;5062940;28;20021;-85
2023/12/18 10:17:19;;;;;;;72.47;30.60;;;;;;;2.78;70.80;95496.00;5063128;28;20035;-86
2023/12/18 10:19:44;;;;;;;58.15;30.20;;;;;;;2.87;69.67;95491.22;5064024;28;20055;-85
2023/12/18 10:22:10;;;;;;;61.50;29.33;;;;;;;2.99;69.07;95497.34;5064185;28;20044;-84
2023/12/18 10:24:42;;;;;;;62.28;30.60;;;;;;;2.91;68.74;95492.41;5064007;28;20114;-84
2023/12/18 10:27:11;;;;;;;64.18;30.38;;;;;;;2.97;68.93;95491.50;5064232;28;20037;-89
2023/12/18 10:29:36;;;;;;;54.33;28.00;;;;;;;3.06;68.16;95491.97;5064322;28;20208;-85
2023/12/18 10:32:02;;;;;;;62.92;30.35;;;;;;;3.13;68.62;95502.41;5062576;28;20032;-85
2023/12/18 10:34:28;;;;;;;60.20;29.23;;;;;;;3.17;67.76;95499.06;5063701;28;20021;-85
2023/12/18 10:36:55;;;;;;;58.90;28.42;;;;;;;3.18;68.56;95482.25;5063357;28;20021;-85
2023/12/18 10:39:26;;;;;;;61.78;30.30;;;;;;;3.24;67.67;95488.47;5063945;28;20024;-85
2023/12/18 10:41:55;;;;;;;64.32;31.20;;;;;;;3.28;69.21;95483.50;5063393;28;20062;-84
2023/12/18 10:44:23;;;;;;;67.20;33.00;;;;;;;3.34;69.00;95477.38;5062567;28;20282;-85
2023/12/18 10:46:49;;;;;;;69.72;30.00;;;;;;;3.37;68.98;95475.06;5063464;28;20319;-84
2023/12/18 10:49:16;;;;;;;67.78;32.38;;;;;;;3.45;69.47;95462.56;5063660;28;20074;-85
2023/12/18 10:51:44;;;;;;;61.45;30.98;;;;;;;3.52;69.33;95450.91;5063208;28;20021;-85
2023/12/18 10:54:11;;;;;;;68.10;32.25;;;;;;;3.65;69.25;95446.41;5063270;28;20055;-85
2023/12/18 10:56:39;;;;;;;65.75;30.40;;;;;;;3.70;68.92;95438.59;5062045;28;20021;-85
2023/12/18 10:59:06;;;;;;;60.22;28.45;;;;;;;3.75;68.19;95433.47;5061149;28;20059;-85
2023/12/18 11:01:34;;;;;;;62.45;30.25;;;;;;;3.73;67.73;95436.31;5061853;28;20025;-85
2023/12/18 11:04:01;;;;;;;62.13;30.85;;;;;;;3.88;68.04;95435.84;5062374;28;20091;-85
2023/12/18 11:06:28;;;;;;;58.72;30.80;;;;;;;4.02;68.36;95423.19;5062015;28;20033;-84
2023/12/18 11:08:53;;;;;;;56.45;29.10;;;;;;;4.18;67.29;95411.91;5062531;28;20184;-85
2023/12/18 11:11:21;;;;;;;49.92;27.20;;;;;;;4.33;66.61;95414.03;5062749;28;20029;-85
2023/12/18 11:13:50;;;;;;;52.78;26.13;;;;;;;4.33;65.55;95405.31;5061581;28;20146;-85